createdAt,value
2022-11-06T00:09:38.306Z,91.82
2022-11-06T00:19:59.751Z,91.28
2022-11-06T00:30:21.207Z,91.05
2022-11-06T00:40:42.622Z,90.74
2022-11-06T00:51:04.514Z,90.41
2022-11-06T01:01:27.298Z,90.69
2022-11-06T01:22:36.241Z,89.63
2022-11-06T01:32:57.651Z,90.15
2022-11-06T01:43:23.428Z,89.21
2022-11-06T01:53:45.509Z,89.05
2022-11-06T02:04:25.411Z,88.29
2022-11-06T02:15:23.126Z,88.49
2022-11-06T02:25:59.735Z,88.46
2022-11-06T02:36:28.991Z,88.65
2022-11-06T02:46:57.232Z,89.03
2022-11-06T02:57:20.621Z,88.42
2022-11-06T03:07:50.296Z,88.94
2022-11-06T03:18:35.471Z,88.46
2022-11-06T03:29:12.550Z,88.79
2022-11-06T03:39:39.992Z,88.82
2022-11-06T03:50:16.803Z,88.51
2022-11-06T04:00:41.942Z,89.02
2022-11-06T04:11:24.998Z,89.89
2022-11-06T04:21:57.255Z,92.23
2022-11-06T04:32:26.765Z,92.71
2022-11-06T04:43:08.004Z,92.36
2022-11-06T04:53:31.784Z,91.68
2022-11-06T05:03:53.199Z,91.57
2022-11-06T05:14:14.701Z,93.67
2022-11-06T05:24:36.142Z,94.95
2022-11-06T05:34:57.569Z,94.45
2022-11-06T05:45:19.049Z,95.82
2022-11-06T05:55:40.535Z,95.83
2022-11-06T06:06:01.947Z,95.18
2022-11-06T06:16:23.394Z,93.79
2022-11-06T06:26:45.016Z,94.86
2022-11-06T06:37:06.469Z,95.19
2022-11-06T06:47:27.891Z,96.73
2022-11-06T06:57:55.059Z,97.08
2022-11-06T07:08:16.680Z,98.07
2022-11-06T07:18:39.610Z,97.91
2022-11-06T07:29:01.021Z,97.37
2022-11-06T07:39:22.472Z,96.38
2022-11-06T07:49:49.692Z,94.45
2022-11-06T08:00:13.408Z,92.32
2022-11-06T08:10:37.679Z,92.32
2022-11-06T08:20:59.552Z,92.34
2022-11-06T08:31:21.130Z,92.06
2022-11-06T08:41:42.878Z,90.93
2022-11-06T08:52:04.349Z,89.86
2022-11-06T09:02:25.887Z,89.94
2022-11-06T09:12:47.343Z,89.31
2022-11-06T09:23:10.579Z,89.41
2022-11-06T09:33:32.348Z,88.63
2022-11-06T09:44:17.572Z,88.27
2022-11-06T09:54:50.744Z,87.72
2022-11-06T10:05:47.713Z,87.63
2022-11-06T10:16:36.689Z,86.64
2022-11-06T10:26:58.261Z,86.81
2022-11-06T10:37:26.147Z,86.89
2022-11-06T10:47:54.385Z,85.58
2022-11-06T10:58:22.459Z,86.18
2022-11-06T11:08:49.594Z,86.09
2022-11-06T11:19:36.533Z,85.14
2022-11-06T11:29:58.308Z,84.21
2022-11-06T11:40:36.364Z,83.46
2022-11-06T11:50:58.035Z,83.11
2022-11-06T12:01:31.449Z,83.01
2022-11-06T12:11:55.579Z,83.66
2022-11-06T12:22:33.543Z,83.52
2022-11-06T12:33:27.336Z,82.44
2022-11-06T12:44:02.016Z,82.82
2022-11-06T12:54:38.775Z,83.25
2022-11-06T13:05:03.200Z,82.32
2022-11-06T13:15:36.716Z,82.37
2022-11-06T13:26:26.201Z,83.09
2022-11-06T13:36:48.660Z,82.53
2022-11-06T13:47:20.072Z,82.76
2022-11-06T13:58:06.162Z,81.37
2022-11-06T14:08:30.062Z,81.77
2022-11-06T14:18:56.544Z,82.17
2022-11-06T14:29:27.239Z,82.26
2022-11-06T14:39:54.807Z,82.92
2022-11-06T14:50:19.373Z,83.16
2022-11-06T15:01:10.073Z,81.10
2022-11-06T15:11:34.980Z,82.60
2022-11-06T15:22:05.287Z,82.44
2022-11-06T15:32:30.250Z,82.93
2022-11-06T15:42:52.024Z,81.55
2022-11-06T15:53:13.657Z,80.16
2022-11-06T16:03:53.959Z,80.98
2022-11-06T16:14:15.639Z,81.73
2022-11-06T16:24:52.235Z,80.35
2022-11-06T16:35:31.803Z,80.26
2022-11-06T16:45:56.019Z,80.27
2022-11-06T16:56:23.467Z,80.43
2022-11-06T17:06:45.321Z,80.85
2022-11-06T17:17:06.704Z,77.75
2022-11-06T17:27:28.116Z,79.84
2022-11-06T17:37:49.551Z,80.46
2022-11-06T17:48:11.130Z,80.63
2022-11-06T17:58:33.690Z,80.18
2022-11-06T18:08:59.568Z,80.61
2022-11-06T18:19:23.319Z,81.96
2022-11-06T18:29:44.848Z,84.10
2022-11-06T18:40:06.890Z,86.88
2022-11-06T18:50:28.454Z,89.19
2022-11-06T19:00:49.900Z,90.84
2022-11-06T19:11:14.929Z,92.66
2022-11-06T19:21:36.438Z,93.99
2022-11-06T19:32:01.898Z,95.64
2022-11-06T19:42:23.315Z,95.13
2022-11-06T19:52:50.943Z,96.11
2022-11-06T20:03:16.758Z,95.28
2022-11-06T20:13:39.416Z,96.09
2022-11-06T20:24:00.899Z,96.27
2022-11-06T20:34:22.326Z,95.99
2022-11-06T20:44:43.849Z,91.73
2022-11-06T20:55:05.734Z,91.01
2022-11-06T21:05:27.154Z,91.94
2022-11-06T21:15:48.723Z,92.71
2022-11-06T21:26:15.906Z,90.49
2022-11-06T21:36:37.981Z,90.56
2022-11-06T21:46:59.504Z,89.12
2022-11-06T21:57:20.919Z,88.20
2022-11-06T22:07:42.342Z,85.88
2022-11-06T22:18:03.873Z,86.31
2022-11-06T22:28:25.364Z,86.64
2022-11-06T22:38:47.449Z,87.22
2022-11-06T22:49:09.092Z,87.49
2022-11-06T22:59:30.496Z,86.90
2022-11-06T23:09:51.917Z,88.38
2022-11-06T23:20:13.328Z,89.11
2022-11-06T23:30:34.806Z,89.84
2022-11-06T23:40:56.216Z,89.89
2022-11-06T23:51:18.164Z,90.38
